Terminal Aerodrome Forecast
Issued by NWS Albany, NY

Home | Current Version | Previous Version | Text Only | Print | Product List | Glossary On
Versions: 1 2 3 4 5 6 7 8 9 10 11 12 13 14 15 16 17 18 19 20
000
FTUS41 KALY 270545
TAFPOU
TAF
KPOU 270545Z 2706/2806 00000KT P6SM BKN035 OVC110
     FM270800 VRB03KT P6SM BKN050 BKN110
     FM271100 VRB03KT P6SM SCT050
     FM271700 32005KT P6SM BKN050
     FM272300 32006KT P6SM SCT050
     FM280200 VRB03KT P6SM SKC=

USA.gov is the U.S. government's official web portal to all federal, state and local government web resources and services.